createdAt,value
2023-01-23T00:15:02.488Z,10.50
2023-01-23T00:20:07.046Z,11.70
2023-01-23T00:25:11.381Z,10.88
2023-01-23T00:30:15.394Z,9.40
2023-01-23T00:35:18.843Z,9.75
2023-01-23T00:40:23.835Z,10.10
2023-01-23T00:50:29.778Z,13.57
2023-01-23T01:00:45.266Z,13.85
2023-01-23T01:06:02.618Z,14.20
2023-01-23T01:11:06.615Z,11.02
2023-01-23T01:16:18.319Z,8.20
2023-01-23T01:21:32.101Z,13.15
2023-01-23T01:26:36.095Z,13.45
2023-01-23T01:31:39.283Z,11.05
2023-01-23T01:46:49.513Z,15.43
2023-01-23T01:52:07.638Z,13.45
2023-01-23T01:57:25.547Z,17.52
2023-01-23T02:02:51.587Z,18.50
2023-01-23T02:08:06.267Z,15.10
2023-01-23T02:13:37.187Z,15.88
2023-01-23T02:18:44.302Z,14.75
2023-01-23T02:23:55.091Z,26.58
2023-01-23T02:34:13.888Z,15.10
2023-01-23T02:39:19.335Z,17.33
2023-01-23T02:44:31.369Z,17.98
2023-01-23T02:49:38.746Z,18.48
2023-01-23T02:54:42.951Z,19.05
2023-01-23T02:59:46.742Z,18.42
2023-01-23T03:04:50.284Z,20.85
2023-01-23T03:14:56.569Z,21.38
2023-01-23T03:19:59.820Z,24.08
2023-01-23T03:25:12.165Z,26.60
2023-01-23T03:30:28.515Z,15.68
2023-01-23T03:35:31.775Z,21.60
2023-01-23T03:40:36.107Z,25.25
2023-01-23T03:45:41.585Z,19.80
2023-01-23T03:50:44.964Z,22.00
2023-01-23T03:55:49.581Z,18.77
2023-01-23T04:00:53.458Z,23.23
2023-01-23T04:05:58.798Z,23.88
2023-01-23T04:11:05.257Z,20.75
2023-01-23T04:16:09.065Z,22.40
2023-01-23T04:21:13.740Z,20.50
2023-01-23T04:26:18.388Z,26.90
2023-01-23T04:36:50.097Z,26.17
2023-01-23T04:41:55.322Z,18.38
2023-01-23T04:47:21.541Z,24.45
2023-01-23T04:52:25.897Z,20.40
2023-01-23T04:57:32.991Z,20.42
2023-01-23T05:02:59.279Z,24.20
2023-01-23T05:08:03.641Z,24.02
2023-01-23T05:13:08.736Z,23.05
2023-01-23T05:18:21.762Z,17.40
2023-01-23T05:23:48.916Z,23.10
2023-01-23T05:28:54.340Z,26.25
2023-01-23T05:33:57.721Z,25.95
2023-01-23T05:39:01.278Z,20.60
2023-01-23T05:44:06.343Z,19.33
2023-01-23T05:49:23.353Z,28.25
2023-01-23T05:54:27.876Z,28.20
2023-01-23T05:59:44.346Z,30.00
2023-01-23T06:05:26.116Z,17.73
2023-01-23T06:11:06.253Z,27.08
2023-01-23T06:16:29.079Z,21.02
2023-01-23T06:21:33.952Z,21.65
2023-01-23T06:26:38.062Z,26.98
2023-01-23T06:31:42.753Z,25.65
2023-01-23T06:36:47.726Z,24.73
2023-01-23T06:41:52.010Z,22.02
2023-01-23T06:46:59.081Z,24.63
2023-01-23T06:52:02.845Z,24.88
2023-01-23T06:57:07.044Z,22.00
2023-01-23T07:02:12.243Z,29.55
2023-01-23T07:07:21.035Z,22.17
2023-01-23T07:12:26.712Z,29.48
2023-01-23T07:17:30.889Z,27.52
2023-01-23T07:22:36.979Z,28.17
2023-01-23T07:27:41.230Z,22.58
2023-01-23T07:32:44.484Z,28.45
2023-01-23T07:42:51.607Z,31.42
2023-01-23T07:47:55.283Z,34.45
2023-01-23T07:52:58.568Z,27.65
2023-01-23T07:58:01.899Z,22.02
2023-01-23T08:08:13.528Z,28.02
2023-01-23T08:13:17.322Z,25.40
2023-01-23T08:18:20.619Z,20.83
2023-01-23T08:23:28.986Z,24.85
2023-01-23T08:28:33.077Z,23.77
2023-01-23T08:33:37.662Z,33.85
2023-01-23T08:38:41.406Z,22.20
2023-01-23T08:43:44.979Z,21.33
2023-01-23T08:48:48.076Z,23.25
2023-01-23T08:59:11.372Z,25.27
2023-01-23T09:04:34.248Z,33.10
2023-01-23T09:09:37.570Z,22.98
2023-01-23T09:14:41.602Z,26.85
2023-01-23T09:19:45.450Z,32.67
2023-01-23T09:24:48.766Z,25.75
2023-01-23T09:29:52.092Z,19.15
2023-01-23T09:34:55.372Z,23.80
2023-01-23T09:39:58.684Z,25.50
2023-01-23T09:45:05.658Z,21.80
2023-01-23T09:50:19.697Z,19.02
2023-01-23T09:55:51.536Z,20.20
2023-01-23T10:00:55.201Z,28.23
2023-01-23T10:06:25.236Z,29.77
2023-01-23T10:11:40.616Z,22.15
2023-01-23T10:17:18.049Z,27.90
2023-01-23T10:22:38.111Z,28.75
2023-01-23T10:27:45.471Z,28.20
2023-01-23T10:32:57.843Z,23.88
2023-01-23T10:38:10.864Z,30.50
2023-01-23T10:43:22.271Z,24.48
2023-01-23T10:48:50.798Z,23.55
2023-01-23T10:54:11.297Z,24.92
2023-01-23T10:59:26.780Z,26.35
2023-01-23T11:04:36.263Z,20.20
2023-01-23T11:10:02.409Z,22.23
2023-01-23T11:15:24.171Z,27.40
2023-01-23T11:20:35.484Z,22.70
2023-01-23T11:25:44.392Z,24.42
2023-01-23T11:30:58.342Z,25.70
2023-01-23T11:36:20.249Z,18.40
2023-01-23T11:41:31.605Z,14.77
2023-01-23T11:46:57.678Z,21.63
2023-01-23T11:52:35.237Z,15.18
2023-01-23T11:58:13.409Z,19.90
2023-01-23T12:03:51.835Z,22.70
2023-01-23T12:09:07.015Z,23.27
2023-01-23T12:14:42.190Z,23.27
2023-01-23T12:19:56.839Z,21.98
2023-01-23T12:25:37.993Z,26.63
2023-01-23T12:30:43.994Z,30.42
2023-01-23T12:36:01.493Z,24.33
2023-01-23T12:41:25.189Z,29.55
2023-01-23T12:46:46.318Z,27.85
2023-01-23T12:52:25.955Z,30.83
2023-01-23T12:57:45.878Z,23.50
2023-01-23T13:03:37.314Z,36.28
2023-01-23T13:09:17.493Z,32.80
2023-01-23T13:14:43.410Z,33.85
2023-01-23T13:20:26.631Z,27.52
2023-01-23T13:25:50.512Z,30.75
2023-01-23T13:31:05.164Z,33.00
2023-01-23T13:36:23.865Z,31.38
2023-01-23T13:41:29.511Z,31.42
2023-01-23T14:24:27.988Z,20.52
2023-01-23T14:29:31.087Z,27.67
2023-01-23T14:34:39.639Z,18.50
2023-01-23T14:39:53.066Z,19.88
2023-01-23T14:45:00.918Z,19.55
2023-01-23T14:50:36.118Z,25.27
2023-01-23T14:55:42.804Z,22.88
2023-01-23T15:00:46.714Z,25.17
2023-01-23T15:05:57.729Z,22.75
2023-01-23T15:11:02.717Z,23.10
2023-01-23T15:16:18.345Z,19.20
2023-01-23T15:21:33.646Z,29.23
2023-01-23T15:26:38.589Z,27.40
2023-01-23T15:31:47.212Z,23.08
2023-01-23T15:36:57.916Z,21.92
2023-01-23T15:42:26.159Z,21.88
2023-01-23T15:47:31.768Z,29.55
2023-01-23T15:52:52.568Z,29.15
2023-01-23T15:57:56.625Z,24.30
2023-01-23T16:03:00.210Z,23.77
2023-01-23T16:08:04.454Z,30.23
2023-01-23T16:13:13.875Z,22.23
2023-01-23T16:18:17.094Z,21.00
2023-01-23T16:28:25.499Z,28.58
2023-01-23T16:33:30.145Z,23.95
2023-01-23T16:38:33.544Z,19.58
2023-01-23T16:43:49.537Z,22.40
2023-01-23T16:49:13.260Z,23.92
2023-01-23T16:54:19.492Z,19.98
2023-01-23T16:59:38.744Z,20.45
2023-01-23T17:04:42.151Z,18.92
2023-01-23T17:09:46.314Z,21.60
2023-01-23T17:14:50.484Z,17.65
2023-01-23T17:19:54.080Z,21.13
2023-01-23T17:24:57.495Z,17.10
2023-01-23T17:30:01.399Z,19.33
2023-01-23T17:35:09.516Z,17.15
2023-01-23T17:40:16.902Z,12.65
2023-01-23T17:45:23.592Z,17.50
2023-01-23T17:50:27.599Z,20.52
2023-01-23T17:55:31.852Z,12.80
2023-01-23T18:00:35.852Z,13.05
2023-01-23T18:05:39.933Z,19.08
2023-01-23T18:10:48.094Z,15.38
2023-01-23T18:16:16.244Z,15.88
2023-01-23T18:21:20.936Z,13.77
2023-01-23T18:26:45.073Z,14.13
2023-01-23T18:32:08.221Z,12.27
2023-01-23T18:37:42.624Z,11.90
2023-01-23T18:42:54.990Z,15.45
2023-01-23T18:47:59.374Z,15.70
2023-01-23T18:53:40.635Z,12.93
2023-01-23T18:59:33.746Z,17.77
2023-01-23T19:05:14.587Z,11.32
2023-01-23T19:10:46.743Z,18.27
2023-01-23T19:16:16.901Z,19.08
2023-01-23T19:21:24.271Z,17.48
2023-01-23T19:26:47.806Z,18.48
2023-01-23T19:32:10.716Z,16.48
2023-01-23T19:37:14.281Z,17.00
2023-01-23T19:42:17.670Z,14.98
2023-01-23T19:47:20.908Z,15.23
2023-01-23T19:57:29.675Z,14.93
2023-01-23T20:02:33.561Z,12.60
2023-01-23T20:07:37.056Z,19.20
2023-01-23T20:17:50.251Z,9.10
2023-01-23T20:28:09.673Z,14.38
2023-01-23T20:33:45.668Z,15.40
2023-01-23T20:39:08.677Z,16.27
2023-01-23T20:44:12.440Z,13.13
2023-01-23T20:49:15.804Z,17.98
2023-01-23T21:04:27.856Z,10.52
2023-01-23T21:09:31.237Z,15.77
2023-01-23T21:19:38.680Z,15.43
2023-01-23T21:24:42.051Z,14.05
2023-01-23T21:29:45.597Z,10.30
2023-01-23T21:34:48.931Z,15.95
2023-01-23T21:39:52.275Z,14.35
2023-01-23T21:44:55.498Z,11.75
2023-01-23T21:49:58.873Z,11.27
2023-01-23T21:55:02.399Z,12.18
2023-01-23T22:00:06.809Z,10.27
2023-01-23T22:05:15.724Z,15.50
2023-01-23T22:10:18.966Z,10.13
2023-01-23T22:15:22.594Z,16.27
2023-01-23T22:20:26.370Z,14.60
2023-01-23T22:25:29.604Z,12.13
2023-01-23T22:35:40.217Z,17.88
2023-01-23T22:40:43.792Z,15.98
2023-01-23T22:50:58.360Z,13.70
2023-01-23T22:56:16.854Z,11.25
2023-01-23T23:01:20.692Z,11.18
2023-01-23T23:06:24.709Z,18.67
2023-01-23T23:11:29.077Z,15.88
2023-01-23T23:16:40.735Z,12.63
2023-01-23T23:21:56.837Z,18.48
2023-01-23T23:32:03.231Z,21.17
2023-01-23T23:37:06.431Z,20.33
2023-01-23T23:47:33.061Z,17.10
2023-01-23T23:52:36.936Z,16.58
2023-01-23T23:57:40.514Z,18.00
